Time;durP1;ratioP1;P1;durP2;ratioP2;P2;SDS_P1;SDS_P2;PMS_P1;PMS_P2;Temp;Humidity;BMP_temperature;BMP_pressure;BME280_temperature;BME280_humidity;BME280_pressure;Samples;Min_cycle;Max_cycle;Signal;HPM_P1;HPM_P2
2022/08/11 00:01:15;;;;;;;5.57;2.60;;;14.90;99.90;;;;;;5033191;28;20049;-57
2022/08/11 00:03:45;;;;;;;3.58;2.53;;;14.90;99.90;;;;;;5034269;28;20059;-57
2022/08/11 00:06:14;;;;;;;3.47;2.30;;;14.90;99.90;;;;;;5035378;28;20099;-57
2022/08/11 00:08:42;;;;;;;2.72;2.25;;;14.90;99.90;;;;;;5034335;28;20053;-57
2022/08/11 00:11:11;;;;;;;2.15;1.98;;;14.80;99.90;;;;;;5049773;28;20741;-57
2022/08/11 00:13:41;;;;;;;3.35;2.45;;;14.80;99.90;;;;;;5036511;28;20040;-57
2022/08/11 00:16:15;;;;;;;3.35;2.83;;;14.70;99.90;;;;;;5053183;28;20052;-56
2022/08/11 00:18:44;;;;;;;3.42;2.30;;;14.60;99.90;;;;;;5054927;28;20065;-56
2022/08/11 00:21:13;;;;;;;2.72;2.38;;;14.60;99.90;;;;;;5053387;28;20045;-57
2022/08/11 00:23:51;;;;;;;3.58;2.10;;;14.60;99.90;;;;;;5039783;28;20747;-56
2022/08/11 00:26:20;;;;;;;4.43;2.60;;;14.50;99.90;;;;;;5033255;28;20769;-56
2022/08/11 00:28:47;;;;;;;4.03;2.88;;;14.60;99.90;;;;;;5034550;28;20048;-56
2022/08/11 00:31:32;;;;;;;2.72;2.20;;;14.60;99.90;;;;;;5033768;28;20041;-56
2022/08/11 00:34:01;;;;;;;2.83;2.38;;;14.50;99.90;;;;;;5033629;28;20045;-57
2022/08/11 00:36:50;;;;;;;3.72;2.60;;;14.60;99.90;;;;;;5034165;28;20052;-54
2022/08/11 00:39:20;;;;;;;3.63;2.13;;;14.50;99.90;;;;;;5036744;28;20147;-57
2022/08/11 00:42:05;;;;;;;5.45;2.42;;;14.50;99.90;;;;;;5053502;28;20068;-56
2022/08/11 00:44:45;;;;;;;3.97;2.85;;;14.40;99.90;;;;;;5053156;28;20045;-58
2022/08/11 00:47:30;;;;;;;7.30;2.78;;;14.40;99.90;;;;;;5054278;28;20058;-58
2022/08/11 00:50:21;;;;;;;5.93;2.35;;;14.30;99.90;;;;;;5053178;28;20504;-59
2022/08/11 00:53:03;;;;;;;4.18;2.63;;;14.30;99.90;;;;;;5053065;28;20041;-57
2022/08/11 00:55:51;;;;;;;3.42;2.38;;;14.20;99.90;;;;;;5053126;28;20041;-57
2022/08/11 00:58:30;;;;;;;3.10;2.17;;;14.20;99.90;;;;;;5054019;28;20482;-58
2022/08/11 01:01:15;;;;;;;3.08;2.30;;;14.10;99.90;;;;;;5052739;28;20608;-58
2022/08/11 01:04:24;;;;;;;5.15;2.10;;;14.10;99.90;;;;;;5053537;28;20102;-56
2022/08/11 01:07:21;;;;;;;3.80;2.65;;;14.10;99.90;;;;;;5053187;28;20746;-58
2022/08/11 01:11:01;;;;;;;2.80;2.60;;;14.10;99.90;;;;;;5053625;28;20040;-56
2022/08/11 01:13:45;;;;;;;4.90;3.00;;;14.10;99.90;;;;;;5011740;28;20036;-57
2022/08/11 01:16:49;;;;;;;4.35;2.00;;;14.00;99.90;;;;;;5028575;28;20053;-57
2022/08/11 01:19:47;;;;;;;2.50;2.25;;;14.00;99.90;;;;;;5049406;28;20109;-56
2022/08/11 01:23:11;;;;;;;4.10;2.70;;;14.00;99.90;;;;;;5052879;28;20075;-57
2022/08/11 01:25:43;;;;;;;;;;;14.00;99.90;;;;;;5030676;28;20071;-55
2022/08/11 01:28:51;;;;;;;4.18;2.13;;;13.90;99.90;;;;;;5033027;28;19921;-56
2022/08/11 01:31:59;;;;;;;2.83;2.53;;;13.90;99.90;;;;;;5032769;28;20122;-57
2022/08/11 01:34:25;;;;;;;8.25;3.03;;;13.90;99.90;;;;;;5033223;28;20045;-55
2022/08/11 01:37:05;;;;;;;3.08;2.38;;;13.90;99.90;;;;;;5032851;28;20541;-55
2022/08/11 01:39:58;;;;;;;4.15;2.65;;;13.80;99.90;;;;;;5040227;28;20040;-56
2022/08/11 01:46:16;;;;;;;2.97;2.35;;;13.70;99.90;;;;;;5053319;28;20051;-55
2022/08/11 01:49:23;;;;;;;4.05;2.60;;;13.70;99.90;;;;;;5051108;28;20048;-56
2022/08/11 01:52:27;;;;;;;5.75;2.80;;;13.70;99.90;;;;;;5045291;28;20135;-56
2022/08/11 01:55:16;;;;;;;2.83;2.33;;;13.60;99.90;;;;;;5050164;28;20119;-55
2022/08/11 01:58:07;;;;;;;3.58;3.22;;;13.60;99.90;;;;;;5053191;28;20052;-55
2022/08/11 02:01:00;;;;;;;4.10;3.10;;;13.60;99.90;;;;;;5051473;28;20060;-56
2022/08/11 02:03:43;;;;;;;8.13;2.95;;;13.70;99.90;;;;;;5051712;28;20072;-56
2022/08/11 02:09:19;;;;;;;4.80;3.00;;;13.60;99.90;;;;;;5052295;28;20045;-57
2022/08/11 02:11:49;;;;;;;3.90;2.53;;;13.70;99.90;;;;;;5036411;28;20040;-58
2022/08/11 02:14:22;;;;;;;6.18;2.67;;;13.70;99.90;;;;;;5051776;28;20040;-55
2022/08/11 02:17:06;;;;;;;3.20;2.90;;;13.70;99.90;;;;;;5051133;28;20040;-56
2022/08/11 02:23:38;;;;;;;4.93;2.45;;;13.70;99.90;;;;;;5051991;28;20094;-58
2022/08/11 02:26:38;;;;;;;3.25;2.17;;;13.60;99.90;;;;;;5031597;28;20041;-55
2022/08/11 02:29:17;;;;;;;4.22;3.05;;;13.60;99.90;;;;;;5031690;28;20045;-55
2022/08/11 02:35:25;;;;;;;3.97;2.80;;;13.60;99.90;;;;;;5031395;28;20045;-56
2022/08/11 02:38:10;;;;;;;2.90;2.60;;;13.50;99.90;;;;;;5032369;28;20045;-56
2022/08/11 02:40:58;;;;;;;5.15;3.25;;;13.50;99.90;;;;;;5047547;28;20058;-55
2022/08/11 02:43:28;;;;;;;7.68;3.65;;;13.40;99.90;;;;;;5051841;28;20040;-56
2022/08/11 02:46:17;;;;;;;4.82;2.83;;;13.40;99.90;;;;;;5051744;28;20544;-55
2022/08/11 02:51:56;;;;;;;3.33;3.03;;;13.40;99.90;;;;;;5051343;28;20048;-55
2022/08/11 02:54:45;;;;;;;5.00;2.97;;;13.40;99.90;;;;;;5051404;28;20040;-55
2022/08/11 02:57:21;;;;;;;5.15;2.90;;;13.50;99.90;;;;;;5052050;28;20106;-55
2022/08/11 02:59:57;;;;;;;3.40;3.10;;;13.50;99.90;;;;;;5051760;28;20696;-55
2022/08/11 03:03:09;;;;;;;3.67;3.05;;;13.50;99.90;;;;;;5045245;28;20106;-55
2022/08/11 03:05:42;;;;;;;5.50;3.20;;;13.50;99.90;;;;;;5031833;28;20041;-56
2022/08/11 03:08:29;;;;;;;3.63;3.17;;;13.50;99.90;;;;;;5032459;28;20041;-56
2022/08/11 03:17:35;;;;;;;6.63;2.75;;;13.50;99.90;;;;;;5050522;28;20813;-54
2022/08/11 03:20:24;;;;;;;2.90;2.58;;;13.50;99.90;;;;;;5051860;28;20126;-56
2022/08/11 03:23:01;;;;;;;3.13;2.83;;;13.50;99.90;;;;;;5051604;28;20098;-56
2022/08/11 03:25:36;;;;;;;2.78;2.55;;;13.50;99.90;;;;;;5049676;28;20060;-55
2022/08/11 03:28:19;;;;;;;6.53;3.33;;;13.50;99.90;;;;;;5033751;28;20424;-55
2022/08/11 03:31:01;;;;;;;3.20;2.60;;;13.40;99.90;;;;;;5033172;28;20114;-56
2022/08/11 03:34:01;;;;;;;2.55;2.35;;;13.40;99.90;;;;;;5032617;28;20044;-56
2022/08/11 03:36:57;;;;;;;3.67;2.90;;;13.40;99.90;;;;;;5032724;28;20486;-55
2022/08/11 03:39:58;;;;;;;5.07;3.42;;;13.40;99.90;;;;;;5040622;28;20045;-57
2022/08/11 03:42:51;;;;;;;4.60;2.60;;;13.30;99.90;;;;;;5052584;28;20114;-54
2022/08/11 03:45:32;;;;;;;7.10;3.45;;;13.30;99.90;;;;;;5053106;28;20811;-55
2022/08/11 03:48:31;;;;;;;7.65;3.03;;;13.30;99.90;;;;;;5052582;28;20149;-54
2022/08/11 03:51:10;;;;;;;3.67;3.13;;;13.20;99.90;;;;;;5055453;28;20636;-55
2022/08/11 03:53:58;;;;;;;4.28;3.30;;;13.20;99.90;;;;;;5055335;28;20094;-56
2022/08/11 03:56:43;;;;;;;3.70;3.15;;;13.10;99.90;;;;;;5056273;28;20037;-55
2022/08/11 03:59:38;;;;;;;3.47;3.15;;;13.00;99.90;;;;;;5056100;28;20745;-56
2022/08/11 04:02:23;;;;;;;3.97;3.33;;;13.10;99.90;;;;;;5056028;28;20046;-56
2022/08/11 04:05:27;;;;;;;6.05;3.45;;;13.10;99.90;;;;;;5055076;28;20060;-55
2022/08/11 04:08:10;;;;;;;4.75;3.72;;;13.00;99.90;;;;;;5056012;28;20931;-56
2022/08/11 04:11:07;;;;;;;3.95;3.03;;;13.00;99.90;;;;;;5055013;28;20113;-56
2022/08/11 04:15:58;;;;;;;3.45;3.15;;;13.00;99.90;;;;;;5055446;28;20044;-55
2022/08/11 04:17:18;;;;;;;3.63;3.05;;;13.00;99.90;;;;;;5054287;28;20052;-56
2022/08/11 04:20:25;;;;;;;6.38;3.90;;;12.90;99.90;;;;;;5055845;28;20133;-50
2022/08/11 04:23:25;;;;;;;6.18;3.33;;;12.90;99.90;;;;;;5055215;28;20049;-51
2022/08/11 04:26:36;;;;;;;8.10;3.67;;;12.90;99.90;;;;;;5049653;28;20052;-50
2022/08/11 04:29:29;;;;;;;3.33;2.90;;;12.90;99.90;;;;;;5042316;28;20051;-51
2022/08/11 04:32:37;;;;;;;4.85;3.05;;;12.90;99.90;;;;;;5035547;28;20045;-51
2022/08/11 04:35:36;;;;;;;5.88;2.88;;;13.00;99.90;;;;;;5033683;28;20049;-51
2022/08/11 04:38:30;;;;;;;8.15;3.95;;;13.00;99.90;;;;;;5035686;28;20041;-51
2022/08/11 04:41:26;;;;;;;3.03;2.78;;;13.10;99.90;;;;;;5052005;28;20049;-52
2022/08/11 04:44:26;;;;;;;6.03;3.42;;;13.10;99.90;;;;;;5054991;28;20048;-52
2022/08/11 05:01:39;;;;;;;4.82;3.28;;;13.20;99.90;;;;;;5054492;28;20458;-52
2022/08/11 05:03:24;;;;;;;5.00;3.35;;;13.40;99.90;;;;;;5053572;28;20044;-51
2022/08/11 05:06:32;;;;;;;4.75;3.05;;;13.40;99.90;;;;;;5055043;28;20051;-51
2022/08/11 05:09:41;;;;;;;20.63;3.85;;;13.40;99.90;;;;;;5050851;28;20056;-51
2022/08/11 05:12:39;;;;;;;8.65;3.60;;;13.50;99.90;;;;;;5042173;28;20059;-54
2022/08/11 05:35:54;;;;;;;8.50;4.00;;;14.10;99.90;;;;;;5034916;28;20078;-56
2022/08/11 05:58:43;;;;;;;4.80;3.22;;;14.80;99.90;;;;;;5054391;28;20041;-62
2022/08/11 06:01:12;;;;;;;11.40;3.95;;;15.00;99.90;;;;;;5051831;28;20156;-65
2022/08/11 06:06:30;;;;;;;4.07;3.33;;;15.20;99.90;;;;;;5053979;28;20068;-66
2022/08/11 06:08:59;;;;;;;4.55;3.47;;;15.30;99.90;;;;;;5053502;28;20492;-66
2022/08/11 06:11:28;;;;;;;8.82;3.00;;;15.40;99.90;;;;;;5051954;28;20056;-63
2022/08/11 06:14:11;;;;;;;5.07;3.38;;;15.40;99.90;;;;;;5052773;28;20041;-66
2022/08/11 06:16:40;;;;;;;10.02;3.90;;;15.50;99.90;;;;;;5054620;28;20909;-65
2022/08/11 06:19:09;;;;;;;7.10;3.78;;;15.50;99.90;;;;;;5052364;28;20163;-63
2022/08/11 06:21:36;;;;;;;6.38;4.38;;;15.60;99.90;;;;;;5053404;28;20149;-62
2022/08/11 06:24:11;;;;;;;5.68;3.75;;;15.60;99.90;;;;;;5053381;28;20041;-63
2022/08/11 06:26:46;;;;;;;3.88;2.97;;;15.70;99.90;;;;;;5051290;28;20043;-61
2022/08/11 06:29:39;;;;;;;5.47;3.55;;;15.80;99.90;;;;;;5039983;28;20037;-62
2022/08/11 06:32:34;;;;;;;7.75;3.80;;;15.90;99.90;;;;;;5031855;28;20048;-61
2022/08/11 06:35:36;;;;;;;4.25;2.88;;;16.00;99.90;;;;;;5032919;28;20045;-60
2022/08/11 06:38:24;;;;;;;4.45;3.33;;;16.10;99.90;;;;;;5032107;28;20040;-64
2022/08/11 06:43:52;;;;;;;4.45;3.83;;;16.30;99.90;;;;;;5052943;28;20053;-65
2022/08/11 06:46:37;;;;;;;6.28;3.35;;;16.40;99.90;;;;;;5054243;28;20048;-64
2022/08/11 06:52:05;;;;;;;5.53;3.05;;;16.60;99.90;;;;;;5052588;28;20569;-65
2022/08/11 06:54:53;;;;;;;7.65;3.72;;;16.70;99.90;;;;;;5052173;28;20041;-65
2022/08/11 07:03:14;;;;;;;4.57;3.85;;;17.00;99.90;;;;;;5040048;28;21035;-67
2022/08/11 07:05:50;;;;;;;9.65;3.97;;;17.20;99.90;;;;;;5052694;28;20048;-63
2022/08/11 07:17:22;;;;;;;9.40;3.15;;;17.70;99.90;;;;;;5052503;28;20044;-64
2022/08/11 07:31:45;;;;;;;6.53;3.70;;;18.20;99.90;;;;;;5029624;28;20041;-63
2022/08/11 07:34:31;;;;;;;4.43;3.17;;;18.40;99.90;;;;;;5033447;28;20045;-67
2022/08/11 07:37:03;;;;;;;6.95;3.33;;;18.60;99.90;;;;;;5056037;28;20048;-63
2022/08/11 07:39:32;;;;;;;4.97;3.08;;;18.70;99.90;;;;;;5056324;28;20051;-63
2022/08/11 07:42:05;;;;;;;3.90;2.95;;;18.80;99.90;;;;;;5055507;28;20041;-63
2022/08/11 07:48:10;;;;;;;8.90;2.97;;;18.90;99.90;;;;;;5056027;28;20129;-63
2022/08/11 07:52:58;;;;;;;12.50;3.08;;;19.30;99.90;;;;;;5051604;28;20044;-63
2022/08/11 07:55:26;;;;;;;8.00;3.80;;;19.30;99.90;;;;;;5055606;28;20102;-63
2022/08/11 08:18:00;;;;;;;5.90;4.53;;;22.80;99.90;;;;;;5055560;28;20032;-67
2022/08/11 08:20:49;;;;;;;7.85;3.65;;;23.20;99.90;;;;;;5055261;28;20044;-63
2022/08/11 08:23:31;;;;;;;10.38;3.90;;;23.10;97.00;;;;;;5055312;28;20068;-63
2022/08/11 08:26:57;;;;;;;6.50;3.67;;;23.40;99.60;;;;;;5056309;28;20098;-65
2022/08/11 08:30:46;;;;;;;7.57;3.50;;;23.70;97.90;;;;;;5054518;28;20150;-66
2022/08/11 08:31:43;;;;;;;4.25;3.80;;;24.00;96.40;;;;;;5045959;28;20043;-66
2022/08/11 08:34:12;;;;;;;9.32;4.18;;;24.20;92.40;;;;;;5035440;28;20690;-69
2022/08/11 08:36:42;;;;;;;8.63;3.50;;;24.10;91.30;;;;;;5034520;28;20680;-66
2022/08/11 08:39:10;;;;;;;10.05;3.88;;;24.10;89.60;;;;;;5039140;28;20048;-66
2022/08/11 08:41:38;;;;;;;7.82;3.65;;;24.30;91.00;;;;;;5054893;28;20094;-67
2022/08/11 08:44:11;;;;;;;14.07;4.05;;;24.50;91.50;;;;;;5053831;28;20048;-67
2022/08/11 08:46:59;;;;;;;5.53;3.55;;;24.70;91.30;;;;;;5055107;28;20072;-69
2022/08/11 08:49:37;;;;;;;5.00;3.42;;;24.90;90.40;;;;;;5053898;28;20048;-69
2022/08/11 08:52:11;;;;;;;7.15;3.67;;;25.10;88.10;;;;;;5047560;28;20071;-68
2022/08/11 08:55:02;;;;;;;6.32;3.50;;;25.30;81.70;;;;;;5055317;28;20044;-67
2022/08/11 08:57:35;;;;;;;8.35;4.10;;;25.30;78.30;;;;;;5053422;28;20051;-65
2022/08/11 09:00:06;;;;;;;7.55;3.85;;;25.20;77.30;;;;;;5055018;28;20131;-65
2022/08/11 09:02:39;;;;;;;4.38;3.45;;;25.10;78.60;;;;;;5037706;28;20546;-65
2022/08/11 09:05:08;;;;;;;5.70;3.17;;;25.10;77.40;;;;;;5053331;28;20051;-63
2022/08/11 09:07:36;;;;;;;8.98;3.40;;;25.00;77.10;;;;;;5053008;28;20048;-64
2022/08/11 09:10:06;;;;;;;5.63;3.65;;;25.20;81.00;;;;;;5054856;28;20678;-64
2022/08/11 09:12:34;;;;;;;9.13;4.25;;;25.50;76.80;;;;;;5054956;28;20059;-65
2022/08/11 09:15:21;;;;;;;8.32;4.35;;;25.40;73.90;;;;;;5054187;28;20062;-65
2022/08/11 09:17:51;;;;;;;6.18;3.97;;;25.30;73.90;;;;;;5054390;28;20502;-65
2022/08/11 09:20:19;;;;;;;4.57;3.05;;;25.10;74.50;;;;;;5054758;28;20068;-66
2022/08/11 09:28:48;;;;;;;5.90;4.00;;;25.40;74.20;;;;;;5058100;28;20446;-65
2022/08/11 09:31:15;;;;;;;5.32;4.10;;;25.40;76.90;;;;;;5057498;28;20058;-63
2022/08/11 09:33:43;;;;;;;6.55;4.30;;;25.40;74.50;;;;;;5033002;28;20045;-63
2022/08/11 09:41:45;;;;;;;8.95;3.83;;;25.30;71.10;;;;;;5054236;28;20036;-61
2022/08/11 09:44:47;;;;;;;7.03;3.20;;;25.30;72.10;;;;;;5052714;28;20058;-63
2022/08/11 09:47:17;;;;;;;8.85;4.22;;;25.50;73.10;;;;;;5053903;28;20052;-63
2022/08/11 09:49:45;;;;;;;9.60;3.92;;;25.70;74.30;;;;;;5054052;28;20829;-63
2022/08/11 09:52:14;;;;;;;4.72;3.08;;;26.00;72.90;;;;;;5052726;28;20044;-54
2022/08/11 09:54:42;;;;;;;5.15;2.88;;;26.00;71.30;;;;;;5053766;28;20500;-51
2022/08/11 10:00:05;;;;;;;2.95;2.47;;;26.20;68.80;;;;;;5054061;28;20037;-61
2022/08/11 10:02:45;;;;;;;2.95;2.65;;;26.50;70.00;;;;;;5052655;28;20048;-61
2022/08/11 10:08:04;;;;;;;4.70;2.70;;;27.10;68.40;;;;;;5052190;28;20269;-62
2022/08/11 10:10:37;;;;;;;4.57;2.50;;;27.50;65.50;;;;;;5053050;28;20111;-61
2022/08/11 10:13:15;;;;;;;7.90;2.60;;;27.70;65.40;;;;;;5051042;28;20044;-62
2022/08/11 10:16:06;;;;;;;8.45;3.03;;;28.00;65.20;;;;;;5031862;28;20041;-61
2022/08/11 10:18:52;;;;;;;7.68;3.92;;;28.20;61.70;;;;;;5033919;28;20049;-63
2022/08/11 10:21:33;;;;;;;5.70;3.25;;;28.40;60.40;;;;;;5046560;28;20111;-62
2022/08/11 10:26:53;;;;;;;4.50;2.47;;;28.80;58.00;;;;;;5053044;28;20517;-62
2022/08/11 10:33:58;;;;;;;7.53;2.95;;;29.10;54.50;;;;;;5051678;28;20056;-62
2022/08/11 10:35:35;;;;;;;6.90;3.10;;;29.20;55.80;;;;;;5037023;28;20052;-62
2022/08/11 10:38:02;;;;;;;3.25;2.08;;;29.30;53.90;;;;;;5032972;28;20102;-62
2022/08/11 10:40:38;;;;;;;6.70;2.80;;;29.30;55.20;;;;;;5048519;28;20044;-62
2022/08/11 10:43:12;;;;;;;9.13;2.85;;;29.20;54.50;;;;;;5052301;28;20247;-62
2022/08/11 10:48:35;;;;;;;5.85;2.72;;;29.20;54.80;;;;;;5052292;28;20457;-62
2022/08/11 10:51:12;;;;;;;5.32;2.65;;;29.30;54.90;;;;;;5051767;28;20036;-61
2022/08/11 10:59:18;;;;;;;7.03;2.72;;;29.40;55.10;;;;;;5057155;28;20051;-62
2022/08/11 11:01:45;;;;;;;2.67;2.17;;;29.40;53.80;;;;;;5056923;28;20052;-62
2022/08/11 11:04:43;;;;;;;5.65;2.67;;;29.40;52.80;;;;;;5057248;28;20418;-62
2022/08/11 11:07:23;;;;;;;9.52;2.47;;;29.50;53.00;;;;;;5057136;28;20048;-62
2022/08/11 11:09:56;;;;;;;4.13;1.93;;;29.50;53.60;;;;;;5057794;28;20040;-66
2022/08/11 11:18:06;;;;;;;;;;;29.60;51.40;;;;;;5058414;28;20051;-64
2022/08/11 11:20:41;;;;;;;2.45;2.25;;;29.50;50.30;;;;;;5054436;28;19925;-62
2022/08/11 11:23:17;;;;;;;4.88;2.47;;;29.70;50.70;;;;;;5057188;28;20715;-62
2022/08/11 11:26:08;;;;;;;2.95;2.33;;;29.70;51.30;;;;;;5055945;28;20048;-62
2022/08/11 11:28:50;;;;;;;3.50;2.45;;;29.60;50.70;;;;;;5056856;28;20044;-62
2022/08/11 11:31:49;;;;;;;5.43;2.17;;;29.60;50.80;;;;;;5056072;28;20051;-62
2022/08/11 11:34:50;;;;;;;9.02;2.53;;;29.60;52.00;;;;;;5046283;28;20041;-62
2022/08/11 11:37:22;;;;;;;5.28;2.85;;;29.60;49.60;;;;;;5034547;28;20044;-62
2022/08/11 11:39:50;;;;;;;4.90;2.47;;;29.70;49.80;;;;;;5045981;28;20040;-62
2022/08/11 11:42:18;;;;;;;2.25;1.88;;;29.80;50.50;;;;;;5055764;28;20045;-63
2022/08/11 11:44:46;;;;;;;3.42;2.50;;;29.90;50.00;;;;;;5054719;28;20079;-62
2022/08/11 11:47:15;;;;;;;4.80;2.67;;;29.90;50.30;;;;;;5056797;28;20048;-62
2022/08/11 11:49:43;;;;;;;7.25;2.42;;;29.80;50.20;;;;;;5055418;28;20054;-63
2022/08/11 11:52:17;;;;;;;5.75;2.20;;;29.90;50.90;;;;;;5055645;28;20051;-62
2022/08/11 11:54:49;;;;;;;3.28;2.30;;;29.80;50.60;;;;;;5055269;28;20036;-63
2022/08/11 12:03:04;;;;;;;3.00;2.33;;;29.80;50.30;;;;;;5056049;28;20037;-65
2022/08/11 12:05:35;;;;;;;7.85;2.40;;;29.90;49.70;;;;;;5056040;28;20868;-64
2022/08/11 12:08:10;;;;;;;5.30;2.30;;;29.80;49.60;;;;;;5052508;28;20045;-67
2022/08/11 12:13:54;;;;;;;3.65;2.30;;;29.90;50.00;;;;;;5041074;28;20045;-64
2022/08/11 12:16:22;;;;;;;3.05;2.25;;;29.90;49.50;;;;;;5054654;28;20056;-64
2022/08/11 12:19:05;;;;;;;7.55;2.33;;;30.00;49.60;;;;;;5054979;28;20597;-64
2022/08/11 12:21:35;;;;;;;4.82;2.17;;;30.20;49.70;;;;;;5054563;28;20056;-64
2022/08/11 12:29:46;;;;;;;3.00;2.15;;;30.20;48.80;;;;;;5054815;28;20063;-62
2022/08/11 12:32:23;;;;;;;3.40;2.10;;;30.30;48.80;;;;;;5054615;28;20135;-62
2022/08/11 12:34:50;;;;;;;3.75;2.00;;;30.40;48.00;;;;;;5048157;28;20197;-62
2022/08/11 12:37:22;;;;;;;4.93;2.25;;;30.50;48.40;;;;;;5033960;28;20446;-62
2022/08/11 12:46:28;;;;;;;3.13;2.28;;;30.50;47.50;;;;;;5054934;28;20037;-62
2022/08/11 12:52:00;;;;;;;6.72;2.33;;;30.70;48.40;;;;;;5054402;28;20649;-62
2022/08/11 12:54:48;;;;;;;3.38;1.75;;;30.80;48.00;;;;;;5053872;28;20033;-62
2022/08/11 13:05:44;;;;;;;;;;;31.00;46.70;;;;;;5054670;28;20106;-62
2022/08/11 13:08:13;;;;;;;4.10;2.28;;;31.10;47.50;;;;;;5055034;28;19928;-62
2022/08/11 13:13:28;;;;;;;;;;;31.20;47.20;;;;;;5054018;28;20666;-62
2022/08/11 13:16:16;;;;;;;2.50;2.15;;;31.10;46.90;;;;;;5054877;28;19964;-62
2022/08/11 13:18:44;;;;;;;2.72;2.50;;;31.10;47.30;;;;;;5054014;28;20051;-62
2022/08/11 13:21:12;;;;;;;2.92;2.00;;;31.10;45.20;;;;;;5051423;28;20044;-62
2022/08/11 13:23:49;;;;;;;6.72;2.30;;;31.10;45.90;;;;;;5053843;28;20063;-62
2022/08/11 13:26:36;;;;;;;4.20;2.30;;;31.10;46.40;;;;;;5054156;28;20048;-62
2022/08/11 13:29:22;;;;;;;4.10;2.42;;;31.10;45.80;;;;;;5054020;28;20132;-62
2022/08/11 13:31:51;;;;;;;2.83;2.20;;;31.20;46.60;;;;;;5054670;28;20032;-62
2022/08/11 13:34:20;;;;;;;3.78;2.05;;;31.20;46.10;;;;;;5053660;28;20406;-62
2022/08/11 13:36:50;;;;;;;4.60;2.17;;;31.30;45.60;;;;;;5047730;28;20103;-62
2022/08/11 13:39:18;;;;;;;5.78;2.25;;;31.40;46.10;;;;;;5051469;28;20500;-62
2022/08/11 13:41:48;;;;;;;4.43;2.35;;;31.30;45.60;;;;;;5053325;28;20392;-62
2022/08/11 13:44:17;;;;;;;8.30;2.35;;;31.30;46.50;;;;;;5054139;28;20049;-62
2022/08/11 13:46:51;;;;;;;2.72;2.13;;;31.30;46.50;;;;;;5052368;28;20155;-62
2022/08/11 13:49:20;;;;;;;2.83;2.53;;;31.30;46.40;;;;;;5054047;28;20067;-62
2022/08/11 13:51:48;;;;;;;7.68;2.28;;;31.20;47.20;;;;;;5053216;28;20048;-63
2022/08/11 13:54:21;;;;;;;8.73;2.72;;;31.10;45.20;;;;;;5053506;28;20110;-62
2022/08/11 13:56:53;;;;;;;3.20;2.03;;;30.90;46.30;;;;;;5053865;28;20095;-62
2022/08/11 13:59:21;;;;;;;4.95;2.88;;;30.80;46.30;;;;;;5053056;28;20029;-62
2022/08/11 14:02:00;;;;;;;3.33;2.40;;;30.90;47.10;;;;;;5053756;28;20036;-62
2022/08/11 14:05:14;;;;;;;2.33;2.13;;;30.90;47.30;;;;;;5052597;28;20076;-62
2022/08/11 14:07:51;;;;;;;6.43;2.22;;;30.80;46.80;;;;;;5053582;28;20056;-62
2022/08/11 14:10:23;;;;;;;3.00;2.20;;;30.80;46.80;;;;;;5052475;28;20044;-62
2022/08/11 14:15:48;;;;;;;4.75;3.10;;;30.60;47.30;;;;;;5038042;28;20750;-62
2022/08/11 14:18:22;;;;;;;7.57;2.53;;;30.70;46.80;;;;;;5053613;28;20052;-62
2022/08/11 14:23:46;;;;;;;2.42;2.08;;;30.60;47.40;;;;;;5052819;28;20051;-62
2022/08/11 14:26:27;;;;;;;11.75;2.63;;;30.70;46.30;;;;;;5053301;28;20051;-62
2022/08/11 14:29:01;;;;;;;7.75;2.85;;;30.70;46.80;;;;;;5052824;28;20040;-63
2022/08/11 14:31:30;;;;;;;6.55;3.00;;;30.70;47.00;;;;;;5053182;28;20048;-62
2022/08/11 14:34:01;;;;;;;5.18;2.40;;;30.50;46.60;;;;;;5052346;28;20049;-62
2022/08/11 14:36:39;;;;;;;7.72;2.45;;;30.30;47.90;;;;;;5050189;28;20047;-62
2022/08/11 14:39:12;;;;;;;6.38;2.47;;;30.20;47.90;;;;;;5034734;28;20127;-62
2022/08/11 14:47:39;;;;;;;3.40;1.98;;;30.10;46.70;;;;;;5053393;28;20055;-62
2022/08/11 14:50:12;;;;;;;5.78;2.10;;;30.10;47.50;;;;;;5053320;28;20047;-62
2022/08/11 14:52:47;;;;;;;4.47;2.40;;;30.10;47.70;;;;;;5050645;28;20043;-63
2022/08/11 14:58:02;;;;;;;6.38;2.53;;;30.10;47.80;;;;;;5053037;28;20049;-64
2022/08/11 15:00:30;;;;;;;3.28;2.42;;;30.10;46.70;;;;;;5052632;28;20068;-65
2022/08/11 15:03:10;;;;;;;3.42;2.05;;;30.10;45.60;;;;;;5052235;28;20045;-66
2022/08/11 15:05:43;;;;;;;7.88;2.38;;;30.20;44.60;;;;;;5053727;28;20048;-64
2022/08/11 15:08:53;;;;;;;4.68;1.80;;;30.20;46.60;;;;;;5054074;28;20127;-64
2022/08/11 15:14:02;;;;;;;4.78;1.98;;;29.90;46.40;;;;;;5040717;28;20420;-63
2022/08/11 15:19:18;;;;;;;11.33;2.87;;;29.80;46.40;;;;;;5052483;28;20048;-63
2022/08/11 15:24:34;;;;;;;14.95;3.97;;;29.50;47.50;;;;;;5051220;28;20052;-63
2022/08/11 15:38:32;;;;;;;4.15;2.58;;;29.20;47.50;;;;;;5039412;28;20052;-63
2022/08/11 15:46:47;;;;;;;11.25;3.15;;;28.80;48.10;;;;;;5036406;28;20056;-65
2022/08/11 15:49:21;;;;;;;5.38;2.67;;;28.70;49.50;;;;;;5036623;28;20499;-64
2022/08/11 15:52:05;;;;;;;6.70;2.95;;;28.60;49.40;;;;;;5053297;28;20036;-65
2022/08/11 15:54:34;;;;;;;3.17;2.42;;;28.40;49.60;;;;;;5042473;28;20091;-63
2022/08/11 15:57:03;;;;;;;2.80;2.60;;;28.40;49.10;;;;;;5036490;28;20791;-64
2022/08/11 16:05:11;;;;;;;4.22;2.28;;;28.20;50.70;;;;;;5035946;28;20059;-62
2022/08/11 16:07:39;;;;;;;7.32;2.90;;;28.10;51.20;;;;;;5036026;28;20052;-64
2022/08/11 16:10:10;;;;;;;4.80;2.47;;;28.00;51.20;;;;;;5041135;28;20048;-62
2022/08/11 16:18:39;;;;;;;2.30;2.10;;;27.50;50.70;;;;;;5036478;28;20666;-61
2022/08/11 16:21:16;;;;;;;2.78;2.55;;;27.40;50.80;;;;;;5034645;28;20045;-64
2022/08/11 16:24:03;;;;;;;3.45;1.98;;;27.20;51.40;;;;;;5046834;28;20080;-64
2022/08/11 16:26:32;;;;;;;6.07;2.40;;;27.20;52.10;;;;;;5055215;28;20049;-64
2022/08/11 16:29:22;;;;;;;5.40;2.45;;;27.00;52.10;;;;;;5056226;28;20153;-65
2022/08/11 16:32:34;;;;;;;4.15;2.50;;;26.80;52.30;;;;;;5055200;28;20044;-65
2022/08/11 16:40:21;;;;;;;3.75;2.47;;;26.20;53.30;;;;;;5038057;28;20048;-65
2022/08/11 16:48:29;;;;;;;2.55;2.10;;;25.70;55.50;;;;;;5055447;28;20525;-60
2022/08/11 16:51:09;;;;;;;3.58;2.50;;;25.40;56.10;;;;;;5054180;28;20067;-63
2022/08/11 16:53:38;;;;;;;3.75;3.05;;;25.20;56.70;;;;;;5055007;28;20059;-62
2022/08/11 16:56:40;;;;;;;4.80;2.97;;;25.00;56.00;;;;;;5053422;28;20770;-62
2022/08/11 16:59:18;;;;;;;6.78;2.92;;;24.80;56.30;;;;;;5055363;28;20044;-63
2022/08/11 17:01:55;;;;;;;5.75;3.05;;;24.70;57.20;;;;;;5054443;28;20045;-62
2022/08/11 17:13:32;;;;;;;3.60;3.00;;;24.30;58.00;;;;;;5043546;28;20055;-64
2022/08/11 17:16:10;;;;;;;4.70;3.13;;;24.20;58.10;;;;;;5053968;28;20045;-60
2022/08/11 17:19:20;;;;;;;11.85;3.08;;;24.10;58.30;;;;;;5055197;28;20051;-61
2022/08/11 17:24:54;;;;;;;4.45;2.70;;;23.90;58.60;;;;;;5053103;28;20055;-65
2022/08/11 17:27:22;;;;;;;4.78;3.15;;;23.80;58.10;;;;;;5054559;28;20056;-63
2022/08/11 17:29:53;;;;;;;3.67;3.10;;;23.70;58.40;;;;;;5054590;28;20811;-63
2022/08/11 17:35:33;;;;;;;6.97;3.28;;;23.60;59.30;;;;;;5053090;28;20041;-63
2022/08/11 17:38:07;;;;;;;5.32;2.53;;;23.50;59.70;;;;;;5053976;28;20040;-63
2022/08/11 17:48:23;;;;;;;4.28;3.10;;;23.50;61.10;;;;;;5043784;28;20494;-63
2022/08/11 17:49:01;;;;;;;6.47;3.58;;;23.30;62.20;;;;;;5033885;28;20860;-63
2022/08/11 17:59:55;;;;;;;4.32;3.25;;;23.10;63.50;;;;;;5052974;28;20052;-63
2022/08/11 18:05:12;;;;;;;6.15;3.75;;;23.00;64.00;;;;;;5053899;28;20054;-63
